sensor_id;sensor_type;location;lat;lon;timestamp;P1;durP1;ratioP1;P2;durP2;ratioP2
23384;SDS011;11865;45.394;10.978;2023-04-10T00:01:31;10.00;;;6.85;;
23384;SDS011;11865;45.394;10.978;2023-04-10T00:04:01;10.85;;;7.65;;
23384;SDS011;11865;45.394;10.978;2023-04-10T00:06:31;8.63;;;6.88;;
23384;SDS011;11865;45.394;10.978;2023-04-10T00:08:58;10.73;;;7.30;;
23384;SDS011;11865;45.394;10.978;2023-04-10T00:11:26;11.07;;;7.35;;
23384;SDS011;11865;45.394;10.978;2023-04-10T00:13:53;10.85;;;7.45;;
23384;SDS011;11865;45.394;10.978;2023-04-10T00:16:21;11.40;;;6.70;;
23384;SDS011;11865;45.394;10.978;2023-04-10T00:18:49;9.82;;;7.05;;
23384;SDS011;11865;45.394;10.978;2023-04-10T00:21:16;10.15;;;7.05;;
23384;SDS011;11865;45.394;10.978;2023-04-10T00:23:44;11.00;;;7.00;;
23384;SDS011;11865;45.394;10.978;2023-04-10T00:26:11;11.43;;;6.80;;
23384;SDS011;11865;45.394;10.978;2023-04-10T00:28:40;12.35;;;7.28;;
23384;SDS011;11865;45.394;10.978;2023-04-10T00:31:07;9.10;;;6.82;;
23384;SDS011;11865;45.394;10.978;2023-04-10T00:33:35;10.88;;;6.32;;
23384;SDS011;11865;45.394;10.978;2023-04-10T00:36:02;9.48;;;6.28;;
23384;SDS011;11865;45.394;10.978;2023-04-10T00:38:30;10.07;;;6.70;;
23384;SDS011;11865;45.394;10.978;2023-04-10T00:40:57;10.50;;;7.28;;
23384;SDS011;11865;45.394;10.978;2023-04-10T00:43:24;8.55;;;6.13;;
23384;SDS011;11865;45.394;10.978;2023-04-10T00:45:53;9.07;;;6.43;;
23384;SDS011;11865;45.394;10.978;2023-04-10T00:48:20;9.60;;;6.18;;
23384;SDS011;11865;45.394;10.978;2023-04-10T00:50:48;8.40;;;5.75;;
23384;SDS011;11865;45.394;10.978;2023-04-10T00:53:15;9.07;;;6.55;;
23384;SDS011;11865;45.394;10.978;2023-04-10T00:55:43;8.88;;;6.65;;
23384;SDS011;11865;45.394;10.978;2023-04-10T00:58:11;8.20;;;6.32;;
23384;SDS011;11865;45.394;10.978;2023-04-10T01:00:41;7.32;;;5.57;;
23384;SDS011;11865;45.394;10.978;2023-04-10T01:03:09;13.73;;;6.88;;
23384;SDS011;11865;45.394;10.978;2023-04-10T01:05:40;8.70;;;6.07;;
23384;SDS011;11865;45.394;10.978;2023-04-10T01:09:15;9.15;;;5.90;;
23384;SDS011;11865;45.394;10.978;2023-04-10T01:11:35;9.90;;;6.15;;
23384;SDS011;11865;45.394;10.978;2023-04-10T01:14:24;8.82;;;5.95;;
23384;SDS011;11865;45.394;10.978;2023-04-10T01:19:51;7.97;;;5.90;;
23384;SDS011;11865;45.394;10.978;2023-04-10T01:22:28;12.30;;;6.30;;
23384;SDS011;11865;45.394;10.978;2023-04-10T01:27:51;12.50;;;6.22;;
23384;SDS011;11865;45.394;10.978;2023-04-10T01:30:58;10.52;;;6.00;;
23384;SDS011;11865;45.394;10.978;2023-04-10T01:33:37;9.75;;;6.47;;
23384;SDS011;11865;45.394;10.978;2023-04-10T01:36:11;9.95;;;6.07;;
23384;SDS011;11865;45.394;10.978;2023-04-10T01:41:11;10.35;;;6.05;;
23384;SDS011;11865;45.394;10.978;2023-04-10T01:43:39;11.52;;;6.43;;
23384;SDS011;11865;45.394;10.978;2023-04-10T01:46:08;12.30;;;7.38;;
23384;SDS011;11865;45.394;10.978;2023-04-10T01:48:38;12.70;;;6.55;;
23384;SDS011;11865;45.394;10.978;2023-04-10T01:51:08;11.45;;;6.82;;
23384;SDS011;11865;45.394;10.978;2023-04-10T01:53:37;9.25;;;6.53;;
23384;SDS011;11865;45.394;10.978;2023-04-10T01:56:07;11.93;;;6.15;;
23384;SDS011;11865;45.394;10.978;2023-04-10T01:58:41;9.25;;;5.88;;
23384;SDS011;11865;45.394;10.978;2023-04-10T02:01:09;8.50;;;6.07;;
23384;SDS011;11865;45.394;10.978;2023-04-10T02:03:54;9.30;;;6.20;;
23384;SDS011;11865;45.394;10.978;2023-04-10T02:06:26;11.65;;;5.88;;
23384;SDS011;11865;45.394;10.978;2023-04-10T02:09:09;14.43;;;6.80;;
23384;SDS011;11865;45.394;10.978;2023-04-10T02:12:05;12.50;;;6.20;;
23384;SDS011;11865;45.394;10.978;2023-04-10T02:14:38;9.68;;;6.60;;
23384;SDS011;11865;45.394;10.978;2023-04-10T02:17:13;9.90;;;6.70;;
23384;SDS011;11865;45.394;10.978;2023-04-10T02:19:48;8.48;;;5.82;;
23384;SDS011;11865;45.394;10.978;2023-04-10T02:22:17;8.93;;;6.05;;
23384;SDS011;11865;45.394;10.978;2023-04-10T02:24:44;8.48;;;6.22;;
23384;SDS011;11865;45.394;10.978;2023-04-10T02:27:12;10.00;;;5.53;;
23384;SDS011;11865;45.394;10.978;2023-04-10T02:29:40;11.23;;;5.85;;
23384;SDS011;11865;45.394;10.978;2023-04-10T02:32:07;8.55;;;6.35;;
23384;SDS011;11865;45.394;10.978;2023-04-10T02:34:35;9.30;;;5.60;;
23384;SDS011;11865;45.394;10.978;2023-04-10T02:37:02;7.93;;;5.63;;
23384;SDS011;11865;45.394;10.978;2023-04-10T02:39:29;8.43;;;5.65;;
23384;SDS011;11865;45.394;10.978;2023-04-10T02:41:57;9.35;;;5.65;;
23384;SDS011;11865;45.394;10.978;2023-04-10T02:44:24;9.38;;;5.78;;
23384;SDS011;11865;45.394;10.978;2023-04-10T02:46:52;8.95;;;5.80;;
23384;SDS011;11865;45.394;10.978;2023-04-10T02:49:20;9.02;;;6.15;;
23384;SDS011;11865;45.394;10.978;2023-04-10T02:51:47;7.57;;;5.57;;
23384;SDS011;11865;45.394;10.978;2023-04-10T02:54:15;9.75;;;6.57;;
23384;SDS011;11865;45.394;10.978;2023-04-10T02:56:42;11.70;;;6.07;;
23384;SDS011;11865;45.394;10.978;2023-04-10T02:59:10;8.98;;;6.00;;
23384;SDS011;11865;45.394;10.978;2023-04-10T03:01:39;9.30;;;6.55;;
23384;SDS011;11865;45.394;10.978;2023-04-10T03:04:07;9.05;;;6.00;;
23384;SDS011;11865;45.394;10.978;2023-04-10T03:06:37;9.93;;;6.38;;
23384;SDS011;11865;45.394;10.978;2023-04-10T03:09:05;9.02;;;5.38;;
23384;SDS011;11865;45.394;10.978;2023-04-10T03:11:33;8.75;;;5.55;;
23384;SDS011;11865;45.394;10.978;2023-04-10T03:14:01;9.35;;;6.10;;
23384;SDS011;11865;45.394;10.978;2023-04-10T03:16:30;8.75;;;6.03;;
23384;SDS011;11865;45.394;10.978;2023-04-10T03:18:58;10.48;;;5.80;;
23384;SDS011;11865;45.394;10.978;2023-04-10T03:21:26;10.15;;;6.20;;
23384;SDS011;11865;45.394;10.978;2023-04-10T03:23:54;11.57;;;6.50;;
23384;SDS011;11865;45.394;10.978;2023-04-10T03:26:22;13.13;;;6.70;;
23384;SDS011;11865;45.394;10.978;2023-04-10T03:28:50;8.55;;;5.70;;
23384;SDS011;11865;45.394;10.978;2023-04-10T03:31:18;8.60;;;5.30;;
23384;SDS011;11865;45.394;10.978;2023-04-10T03:33:45;8.90;;;6.30;;
23384;SDS011;11865;45.394;10.978;2023-04-10T03:36:13;7.32;;;5.72;;
23384;SDS011;11865;45.394;10.978;2023-04-10T03:38:41;8.35;;;5.53;;
23384;SDS011;11865;45.394;10.978;2023-04-10T03:41:08;9.73;;;5.75;;
23384;SDS011;11865;45.394;10.978;2023-04-10T03:43:36;7.65;;;5.78;;
23384;SDS011;11865;45.394;10.978;2023-04-10T03:46:04;8.60;;;5.20;;
23384;SDS011;11865;45.394;10.978;2023-04-10T03:48:37;9.25;;;5.80;;
23384;SDS011;11865;45.394;10.978;2023-04-10T03:51:04;12.02;;;5.10;;
23384;SDS011;11865;45.394;10.978;2023-04-10T03:53:32;8.98;;;5.68;;
23384;SDS011;11865;45.394;10.978;2023-04-10T03:56:06;7.80;;;5.65;;
23384;SDS011;11865;45.394;10.978;2023-04-10T03:58:35;8.18;;;5.75;;
23384;SDS011;11865;45.394;10.978;2023-04-10T04:01:03;11.02;;;6.30;;
23384;SDS011;11865;45.394;10.978;2023-04-10T04:03:50;11.18;;;6.88;;
23384;SDS011;11865;45.394;10.978;2023-04-10T04:06:27;9.43;;;5.63;;
23384;SDS011;11865;45.394;10.978;2023-04-10T04:09:14;12.02;;;6.05;;
23384;SDS011;11865;45.394;10.978;2023-04-10T04:11:54;11.70;;;6.00;;
23384;SDS011;11865;45.394;10.978;2023-04-10T04:14:47;9.38;;;6.30;;
23384;SDS011;11865;45.394;10.978;2023-04-10T04:17:37;9.32;;;6.63;;
23384;SDS011;11865;45.394;10.978;2023-04-10T04:20:05;10.23;;;6.10;;
23384;SDS011;11865;45.394;10.978;2023-04-10T04:22:48;9.07;;;6.03;;
23384;SDS011;11865;45.394;10.978;2023-04-10T04:25:34;9.43;;;6.13;;
23384;SDS011;11865;45.394;10.978;2023-04-10T04:28:20;12.57;;;6.25;;
23384;SDS011;11865;45.394;10.978;2023-04-10T04:31:08;10.23;;;6.90;;
23384;SDS011;11865;45.394;10.978;2023-04-10T04:33:54;10.15;;;6.32;;
23384;SDS011;11865;45.394;10.978;2023-04-10T04:48:50;9.95;;;6.38;;
23384;SDS011;11865;45.394;10.978;2023-04-10T04:51:27;11.30;;;6.85;;
23384;SDS011;11865;45.394;10.978;2023-04-10T04:54:03;14.20;;;6.65;;
23384;SDS011;11865;45.394;10.978;2023-04-10T04:56:46;10.20;;;6.45;;
23384;SDS011;11865;45.394;10.978;2023-04-10T04:59:31;10.23;;;6.10;;
23384;SDS011;11865;45.394;10.978;2023-04-10T05:02:04;10.70;;;6.65;;
23384;SDS011;11865;45.394;10.978;2023-04-10T05:04:55;10.10;;;6.85;;
23384;SDS011;11865;45.394;10.978;2023-04-10T05:07:41;14.85;;;6.85;;
23384;SDS011;11865;45.394;10.978;2023-04-10T05:10:20;12.38;;;6.38;;
23384;SDS011;11865;45.394;10.978;2023-04-10T05:13:05;11.43;;;6.05;;
23384;SDS011;11865;45.394;10.978;2023-04-10T05:15:47;9.47;;;6.90;;
23384;SDS011;11865;45.394;10.978;2023-04-10T05:18:35;11.52;;;6.82;;
23384;SDS011;11865;45.394;10.978;2023-04-10T05:21:23;10.57;;;6.45;;
23384;SDS011;11865;45.394;10.978;2023-04-10T05:24:04;11.35;;;6.82;;
23384;SDS011;11865;45.394;10.978;2023-04-10T05:26:44;10.82;;;6.93;;
23384;SDS011;11865;45.394;10.978;2023-04-10T05:29:24;14.57;;;6.22;;
23384;SDS011;11865;45.394;10.978;2023-04-10T05:32:14;11.88;;;6.03;;
23384;SDS011;11865;45.394;10.978;2023-04-10T05:35:05;9.90;;;5.97;;
23384;SDS011;11865;45.394;10.978;2023-04-10T05:37:46;7.72;;;5.38;;
23384;SDS011;11865;45.394;10.978;2023-04-10T05:40:25;9.70;;;5.50;;
23384;SDS011;11865;45.394;10.978;2023-04-10T05:43:13;10.05;;;5.63;;
23384;SDS011;11865;45.394;10.978;2023-04-10T05:46:09;10.05;;;5.25;;
23384;SDS011;11865;45.394;10.978;2023-04-10T05:49:00;6.95;;;4.95;;
23384;SDS011;11865;45.394;10.978;2023-04-10T05:51:46;6.45;;;4.78;;
23384;SDS011;11865;45.394;10.978;2023-04-10T05:54:32;7.50;;;4.85;;
23384;SDS011;11865;45.394;10.978;2023-04-10T05:57:11;6.53;;;4.55;;
23384;SDS011;11865;45.394;10.978;2023-04-10T06:00:08;7.85;;;4.70;;
23384;SDS011;11865;45.394;10.978;2023-04-10T06:03:05;8.27;;;5.15;;
23384;SDS011;11865;45.394;10.978;2023-04-10T06:05:41;8.77;;;4.95;;
23384;SDS011;11865;45.394;10.978;2023-04-10T06:08:09;7.25;;;4.95;;
23384;SDS011;11865;45.394;10.978;2023-04-10T06:10:37;6.78;;;4.70;;
23384;SDS011;11865;45.394;10.978;2023-04-10T06:13:05;6.38;;;4.55;;
23384;SDS011;11865;45.394;10.978;2023-04-10T06:15:36;7.37;;;4.80;;
23384;SDS011;11865;45.394;10.978;2023-04-10T06:18:04;5.57;;;4.57;;
23384;SDS011;11865;45.394;10.978;2023-04-10T06:20:31;5.65;;;4.22;;
23384;SDS011;11865;45.394;10.978;2023-04-10T06:22:59;5.53;;;4.20;;
23384;SDS011;11865;45.394;10.978;2023-04-10T06:25:26;4.78;;;4.25;;
23384;SDS011;11865;45.394;10.978;2023-04-10T06:27:54;5.18;;;4.32;;
23384;SDS011;11865;45.394;10.978;2023-04-10T06:30:22;6.13;;;4.50;;
23384;SDS011;11865;45.394;10.978;2023-04-10T06:32:50;13.45;;;5.47;;
23384;SDS011;11865;45.394;10.978;2023-04-10T06:35:19;6.00;;;4.05;;
23384;SDS011;11865;45.394;10.978;2023-04-10T06:37:48;6.65;;;4.05;;
23384;SDS011;11865;45.394;10.978;2023-04-10T06:40:15;4.63;;;3.65;;
23384;SDS011;11865;45.394;10.978;2023-04-10T06:42:43;6.22;;;3.67;;
23384;SDS011;11865;45.394;10.978;2023-04-10T06:45:21;7.75;;;4.57;;
23384;SDS011;11865;45.394;10.978;2023-04-10T06:47:48;4.55;;;3.50;;
23384;SDS011;11865;45.394;10.978;2023-04-10T06:50:16;8.90;;;4.50;;
23384;SDS011;11865;45.394;10.978;2023-04-10T06:52:44;5.25;;;3.80;;
23384;SDS011;11865;45.394;10.978;2023-04-10T06:55:12;5.68;;;4.10;;
23384;SDS011;11865;45.394;10.978;2023-04-10T06:57:39;7.70;;;4.35;;
23384;SDS011;11865;45.394;10.978;2023-04-10T07:00:07;15.98;;;6.05;;
23384;SDS011;11865;45.394;10.978;2023-04-10T07:02:35;5.65;;;3.78;;
23384;SDS011;11865;45.394;10.978;2023-04-10T07:05:03;13.88;;;4.32;;
23384;SDS011;11865;45.394;10.978;2023-04-10T07:07:30;15.82;;;5.53;;
23384;SDS011;11865;45.394;10.978;2023-04-10T07:09:58;6.28;;;4.70;;
23384;SDS011;11865;45.394;10.978;2023-04-10T07:12:26;5.82;;;4.43;;
23384;SDS011;11865;45.394;10.978;2023-04-10T07:14:53;13.38;;;4.90;;
23384;SDS011;11865;45.394;10.978;2023-04-10T07:17:21;3.58;;;3.10;;
23384;SDS011;11865;45.394;10.978;2023-04-10T07:19:48;5.05;;;3.55;;
23384;SDS011;11865;45.394;10.978;2023-04-10T07:22:16;6.22;;;3.90;;
23384;SDS011;11865;45.394;10.978;2023-04-10T07:24:43;15.30;;;7.15;;
23384;SDS011;11865;45.394;10.978;2023-04-10T07:27:11;7.10;;;4.43;;
23384;SDS011;11865;45.394;10.978;2023-04-10T07:29:38;4.50;;;3.03;;
23384;SDS011;11865;45.394;10.978;2023-04-10T07:32:05;5.45;;;3.42;;
23384;SDS011;11865;45.394;10.978;2023-04-10T07:34:33;5.13;;;3.60;;
23384;SDS011;11865;45.394;10.978;2023-04-10T07:37:01;4.03;;;3.35;;
23384;SDS011;11865;45.394;10.978;2023-04-10T07:39:28;6.25;;;3.78;;
23384;SDS011;11865;45.394;10.978;2023-04-10T07:41:55;4.68;;;3.47;;
23384;SDS011;11865;45.394;10.978;2023-04-10T07:44:24;7.47;;;4.03;;
23384;SDS011;11865;45.394;10.978;2023-04-10T07:46:52;4.72;;;3.63;;
23384;SDS011;11865;45.394;10.978;2023-04-10T07:49:21;4.15;;;3.17;;
23384;SDS011;11865;45.394;10.978;2023-04-10T07:51:49;10.82;;;4.53;;
23384;SDS011;11865;45.394;10.978;2023-04-10T07:54:16;12.20;;;4.90;;
23384;SDS011;11865;45.394;10.978;2023-04-10T07:56:43;9.18;;;4.60;;
23384;SDS011;11865;45.394;10.978;2023-04-10T07:59:11;11.18;;;3.53;;
23384;SDS011;11865;45.394;10.978;2023-04-10T08:01:38;5.78;;;3.05;;
23384;SDS011;11865;45.394;10.978;2023-04-10T08:04:07;5.30;;;3.17;;
23384;SDS011;11865;45.394;10.978;2023-04-10T08:06:34;4.70;;;2.85;;
23384;SDS011;11865;45.394;10.978;2023-04-10T08:09:02;3.50;;;2.42;;
23384;SDS011;11865;45.394;10.978;2023-04-10T08:11:30;7.32;;;3.35;;
23384;SDS011;11865;45.394;10.978;2023-04-10T08:14:02;4.18;;;2.88;;
23384;SDS011;11865;45.394;10.978;2023-04-10T08:16:34;5.30;;;2.90;;
23384;SDS011;11865;45.394;10.978;2023-04-10T08:19:02;5.68;;;3.55;;
23384;SDS011;11865;45.394;10.978;2023-04-10T08:21:30;8.20;;;3.92;;
23384;SDS011;11865;45.394;10.978;2023-04-10T08:23:58;4.40;;;3.22;;
23384;SDS011;11865;45.394;10.978;2023-04-10T08:26:27;7.88;;;3.65;;
23384;SDS011;11865;45.394;10.978;2023-04-10T08:28:56;8.10;;;3.70;;
23384;SDS011;11865;45.394;10.978;2023-04-10T08:31:25;13.40;;;4.88;;
23384;SDS011;11865;45.394;10.978;2023-04-10T08:33:54;7.57;;;3.80;;
23384;SDS011;11865;45.394;10.978;2023-04-10T08:36:22;6.70;;;3.35;;
23384;SDS011;11865;45.394;10.978;2023-04-10T08:38:50;5.93;;;3.42;;
23384;SDS011;11865;45.394;10.978;2023-04-10T08:41:18;6.15;;;3.00;;
23384;SDS011;11865;45.394;10.978;2023-04-10T08:43:46;19.23;;;6.75;;
23384;SDS011;11865;45.394;10.978;2023-04-10T08:46:15;12.68;;;4.35;;
23384;SDS011;11865;45.394;10.978;2023-04-10T08:48:54;7.88;;;3.92;;
23384;SDS011;11865;45.394;10.978;2023-04-10T08:51:31;5.30;;;3.65;;
23384;SDS011;11865;45.394;10.978;2023-04-10T08:54:08;5.20;;;3.72;;
23384;SDS011;11865;45.394;10.978;2023-04-10T08:56:40;5.78;;;4.05;;
23384;SDS011;11865;45.394;10.978;2023-04-10T08:59:12;4.78;;;3.35;;
23384;SDS011;11865;45.394;10.978;2023-04-10T09:01:40;5.95;;;3.80;;
23384;SDS011;11865;45.394;10.978;2023-04-10T09:04:09;6.13;;;3.78;;
23384;SDS011;11865;45.394;10.978;2023-04-10T09:06:38;5.82;;;4.20;;
23384;SDS011;11865;45.394;10.978;2023-04-10T09:09:05;5.53;;;3.85;;
23384;SDS011;11865;45.394;10.978;2023-04-10T09:14:21;7.50;;;3.85;;
23384;SDS011;11865;45.394;10.978;2023-04-10T09:16:52;5.47;;;4.00;;
23384;SDS011;11865;45.394;10.978;2023-04-10T09:19:30;7.63;;;3.90;;
23384;SDS011;11865;45.394;10.978;2023-04-10T09:21:59;5.97;;;3.60;;
23384;SDS011;11865;45.394;10.978;2023-04-10T09:24:26;5.05;;;3.63;;
23384;SDS011;11865;45.394;10.978;2023-04-10T09:26:54;6.88;;;3.78;;
23384;SDS011;11865;45.394;10.978;2023-04-10T09:29:22;6.25;;;3.60;;
23384;SDS011;11865;45.394;10.978;2023-04-10T09:31:50;4.90;;;3.75;;
23384;SDS011;11865;45.394;10.978;2023-04-10T09:34:21;8.30;;;4.35;;
23384;SDS011;11865;45.394;10.978;2023-04-10T09:36:53;11.97;;;5.07;;
23384;SDS011;11865;45.394;10.978;2023-04-10T09:39:36;5.85;;;4.22;;
23384;SDS011;11865;45.394;10.978;2023-04-10T09:42:09;5.88;;;4.38;;
23384;SDS011;11865;45.394;10.978;2023-04-10T09:44:40;5.72;;;4.55;;
23384;SDS011;11865;45.394;10.978;2023-04-10T09:47:19;5.68;;;4.22;;
23384;SDS011;11865;45.394;10.978;2023-04-10T09:49:50;8.98;;;4.03;;
23384;SDS011;11865;45.394;10.978;2023-04-10T09:52:26;6.28;;;4.13;;
23384;SDS011;11865;45.394;10.978;2023-04-10T09:55:01;4.75;;;3.78;;
23384;SDS011;11865;45.394;10.978;2023-04-10T09:57:31;4.85;;;3.80;;
23384;SDS011;11865;45.394;10.978;2023-04-10T10:00:04;5.65;;;4.50;;
23384;SDS011;11865;45.394;10.978;2023-04-10T10:02:35;7.10;;;4.57;;
23384;SDS011;11865;45.394;10.978;2023-04-10T10:05:07;7.03;;;4.80;;
23384;SDS011;11865;45.394;10.978;2023-04-10T10:07:36;6.05;;;4.43;;
23384;SDS011;11865;45.394;10.978;2023-04-10T10:10:05;8.50;;;4.88;;
23384;SDS011;11865;45.394;10.978;2023-04-10T10:18:12;6.90;;;4.50;;
23384;SDS011;11865;45.394;10.978;2023-04-10T10:20:58;8.57;;;4.68;;
23384;SDS011;11865;45.394;10.978;2023-04-10T10:23:28;5.40;;;4.35;;
23384;SDS011;11865;45.394;10.978;2023-04-10T10:25:57;10.90;;;4.85;;
23384;SDS011;11865;45.394;10.978;2023-04-10T10:28:29;7.13;;;5.05;;
23384;SDS011;11865;45.394;10.978;2023-04-10T10:30:59;7.93;;;4.25;;
23384;SDS011;11865;45.394;10.978;2023-04-10T10:33:28;7.60;;;4.45;;
23384;SDS011;11865;45.394;10.978;2023-04-10T10:35:57;7.30;;;4.43;;
23384;SDS011;11865;45.394;10.978;2023-04-10T10:38:26;6.47;;;4.45;;
23384;SDS011;11865;45.394;10.978;2023-04-10T10:40:59;8.95;;;5.72;;
23384;SDS011;11865;45.394;10.978;2023-04-10T10:46:13;9.65;;;5.78;;
23384;SDS011;11865;45.394;10.978;2023-04-10T10:48:59;7.10;;;4.80;;
23384;SDS011;11865;45.394;10.978;2023-04-10T10:51:46;6.82;;;4.90;;
23384;SDS011;11865;45.394;10.978;2023-04-10T10:54:30;6.32;;;4.55;;
23384;SDS011;11865;45.394;10.978;2023-04-10T10:57:03;6.78;;;4.63;;
23384;SDS011;11865;45.394;10.978;2023-04-10T11:00:09;6.38;;;4.80;;
23384;SDS011;11865;45.394;10.978;2023-04-10T11:02:37;6.95;;;4.78;;
23384;SDS011;11865;45.394;10.978;2023-04-10T11:05:05;6.15;;;4.50;;
23384;SDS011;11865;45.394;10.978;2023-04-10T11:13:33;8.25;;;5.28;;
23384;SDS011;11865;45.394;10.978;2023-04-10T11:16:05;6.97;;;4.45;;
23384;SDS011;11865;45.394;10.978;2023-04-10T11:19:19;8.07;;;4.67;;
23384;SDS011;11865;45.394;10.978;2023-04-10T11:24:51;7.07;;;4.65;;
23384;SDS011;11865;45.394;10.978;2023-04-10T11:27:41;6.50;;;4.80;;
23384;SDS011;11865;45.394;10.978;2023-04-10T11:30:27;7.50;;;4.78;;
23384;SDS011;11865;45.394;10.978;2023-04-10T11:32:56;7.20;;;4.55;;
23384;SDS011;11865;45.394;10.978;2023-04-10T11:35:26;8.07;;;5.30;;
23384;SDS011;11865;45.394;10.978;2023-04-10T11:38:16;6.93;;;4.93;;
23384;SDS011;11865;45.394;10.978;2023-04-10T11:40:56;7.32;;;4.45;;
23384;SDS011;11865;45.394;10.978;2023-04-10T11:43:32;7.07;;;4.78;;
23384;SDS011;11865;45.394;10.978;2023-04-10T11:46:02;6.90;;;4.47;;
23384;SDS011;11865;45.394;10.978;2023-04-10T11:48:30;7.28;;;4.45;;
23384;SDS011;11865;45.394;10.978;2023-04-10T11:50:58;6.57;;;4.50;;
23384;SDS011;11865;45.394;10.978;2023-04-10T11:53:32;6.15;;;4.43;;
23384;SDS011;11865;45.394;10.978;2023-04-10T11:55:59;5.07;;;3.85;;
23384;SDS011;11865;45.394;10.978;2023-04-10T11:58:28;6.00;;;4.47;;
23384;SDS011;11865;45.394;10.978;2023-04-10T12:00:59;6.65;;;4.28;;
23384;SDS011;11865;45.394;10.978;2023-04-10T12:06:13;8.45;;;4.18;;
23384;SDS011;11865;45.394;10.978;2023-04-10T12:08:41;7.28;;;4.38;;
23384;SDS011;11865;45.394;10.978;2023-04-10T12:11:20;8.93;;;4.75;;
23384;SDS011;11865;45.394;10.978;2023-04-10T12:13:52;5.80;;;4.43;;
23384;SDS011;11865;45.394;10.978;2023-04-10T12:16:21;7.10;;;4.60;;
23384;SDS011;11865;45.394;10.978;2023-04-10T12:18:49;5.97;;;4.22;;
23384;SDS011;11865;45.394;10.978;2023-04-10T12:21:19;5.72;;;4.43;;
23384;SDS011;11865;45.394;10.978;2023-04-10T12:23:46;5.80;;;4.68;;
23384;SDS011;11865;45.394;10.978;2023-04-10T12:26:15;5.18;;;4.07;;
23384;SDS011;11865;45.394;10.978;2023-04-10T12:28:50;8.15;;;4.65;;
23384;SDS011;11865;45.394;10.978;2023-04-10T12:31:30;7.55;;;4.65;;
23384;SDS011;11865;45.394;10.978;2023-04-10T12:36:31;5.90;;;4.18;;
23384;SDS011;11865;45.394;10.978;2023-04-10T12:39:01;7.03;;;4.88;;
23384;SDS011;11865;45.394;10.978;2023-04-10T12:41:31;10.80;;;4.70;;
23384;SDS011;11865;45.394;10.978;2023-04-10T12:44:06;7.13;;;4.90;;
23384;SDS011;11865;45.394;10.978;2023-04-10T12:46:35;6.70;;;4.65;;
23384;SDS011;11865;45.394;10.978;2023-04-10T12:49:14;6.60;;;4.57;;
23384;SDS011;11865;45.394;10.978;2023-04-10T12:54:26;6.25;;;4.63;;
23384;SDS011;11865;45.394;10.978;2023-04-10T12:56:59;5.43;;;4.43;;
23384;SDS011;11865;45.394;10.978;2023-04-10T12:59:28;9.15;;;4.72;;
23384;SDS011;11865;45.394;10.978;2023-04-10T13:01:56;6.30;;;4.50;;
23384;SDS011;11865;45.394;10.978;2023-04-10T13:04:24;5.93;;;4.20;;
23384;SDS011;11865;45.394;10.978;2023-04-10T13:06:52;5.97;;;4.35;;
23384;SDS011;11865;45.394;10.978;2023-04-10T13:09:19;6.00;;;4.43;;
23384;SDS011;11865;45.394;10.978;2023-04-10T13:11:47;6.90;;;4.45;;
23384;SDS011;11865;45.394;10.978;2023-04-10T13:14:17;6.43;;;4.45;;
23384;SDS011;11865;45.394;10.978;2023-04-10T13:16:45;6.50;;;4.45;;
23384;SDS011;11865;45.394;10.978;2023-04-10T13:19:13;6.30;;;4.05;;
23384;SDS011;11865;45.394;10.978;2023-04-10T13:21:40;5.82;;;4.20;;
23384;SDS011;11865;45.394;10.978;2023-04-10T13:24:07;6.38;;;4.03;;
23384;SDS011;11865;45.394;10.978;2023-04-10T13:26:34;5.22;;;3.97;;
23384;SDS011;11865;45.394;10.978;2023-04-10T13:29:02;5.43;;;4.00;;
23384;SDS011;11865;45.394;10.978;2023-04-10T13:31:29;5.00;;;3.75;;
23384;SDS011;11865;45.394;10.978;2023-04-10T13:33:57;4.32;;;3.63;;
23384;SDS011;11865;45.394;10.978;2023-04-10T13:36:24;5.53;;;4.20;;
23384;SDS011;11865;45.394;10.978;2023-04-10T13:38:52;5.55;;;4.00;;
23384;SDS011;11865;45.394;10.978;2023-04-10T13:41:20;5.13;;;4.22;;
23384;SDS011;11865;45.394;10.978;2023-04-10T13:43:49;6.80;;;4.43;;
23384;SDS011;11865;45.394;10.978;2023-04-10T13:46:16;5.53;;;4.18;;
23384;SDS011;11865;45.394;10.978;2023-04-10T13:48:44;4.93;;;3.63;;
23384;SDS011;11865;45.394;10.978;2023-04-10T13:51:11;5.18;;;3.72;;
23384;SDS011;11865;45.394;10.978;2023-04-10T13:53:39;6.22;;;3.63;;
23384;SDS011;11865;45.394;10.978;2023-04-10T13:56:06;5.57;;;4.10;;
23384;SDS011;11865;45.394;10.978;2023-04-10T13:58:34;5.43;;;3.72;;
23384;SDS011;11865;45.394;10.978;2023-04-10T14:01:02;5.45;;;3.30;;
23384;SDS011;11865;45.394;10.978;2023-04-10T14:03:29;5.78;;;4.15;;
23384;SDS011;11865;45.394;10.978;2023-04-10T14:05:57;6.10;;;3.80;;
23384;SDS011;11865;45.394;10.978;2023-04-10T14:08:24;5.63;;;4.13;;
23384;SDS011;11865;45.394;10.978;2023-04-10T14:10:52;5.47;;;3.85;;
23384;SDS011;11865;45.394;10.978;2023-04-10T14:13:19;7.05;;;4.40;;
23384;SDS011;11865;45.394;10.978;2023-04-10T14:15:47;5.65;;;4.15;;
23384;SDS011;11865;45.394;10.978;2023-04-10T14:18:17;6.95;;;3.75;;
23384;SDS011;11865;45.394;10.978;2023-04-10T14:20:45;5.25;;;3.80;;
23384;SDS011;11865;45.394;10.978;2023-04-10T14:23:13;5.72;;;3.70;;
23384;SDS011;11865;45.394;10.978;2023-04-10T14:25:44;5.65;;;3.90;;
23384;SDS011;11865;45.394;10.978;2023-04-10T14:28:12;4.57;;;3.70;;
23384;SDS011;11865;45.394;10.978;2023-04-10T14:30:47;5.32;;;3.92;;
23384;SDS011;11865;45.394;10.978;2023-04-10T14:33:16;5.78;;;3.97;;
23384;SDS011;11865;45.394;10.978;2023-04-10T14:35:46;5.05;;;4.15;;
23384;SDS011;11865;45.394;10.978;2023-04-10T14:38:14;5.72;;;3.83;;
23384;SDS011;11865;45.394;10.978;2023-04-10T14:40:41;8.07;;;4.05;;
23384;SDS011;11865;45.394;10.978;2023-04-10T14:43:11;8.65;;;4.43;;
23384;SDS011;11865;45.394;10.978;2023-04-10T14:45:38;5.93;;;4.05;;
23384;SDS011;11865;45.394;10.978;2023-04-10T14:48:06;6.70;;;4.40;;
23384;SDS011;11865;45.394;10.978;2023-04-10T14:50:34;8.02;;;4.25;;
23384;SDS011;11865;45.394;10.978;2023-04-10T14:53:02;7.05;;;4.45;;
23384;SDS011;11865;45.394;10.978;2023-04-10T14:55:31;6.65;;;4.25;;
23384;SDS011;11865;45.394;10.978;2023-04-10T14:57:59;6.03;;;4.35;;
23384;SDS011;11865;45.394;10.978;2023-04-10T15:00:26;6.93;;;4.32;;
23384;SDS011;11865;45.394;10.978;2023-04-10T15:02:55;5.10;;;3.72;;
23384;SDS011;11865;45.394;10.978;2023-04-10T15:05:24;4.85;;;3.88;;
23384;SDS011;11865;45.394;10.978;2023-04-10T15:07:52;6.28;;;3.85;;
23384;SDS011;11865;45.394;10.978;2023-04-10T15:10:20;5.30;;;3.60;;
23384;SDS011;11865;45.394;10.978;2023-04-10T15:12:47;5.90;;;4.10;;
23384;SDS011;11865;45.394;10.978;2023-04-10T15:15:15;8.27;;;4.40;;
23384;SDS011;11865;45.394;10.978;2023-04-10T15:17:43;5.28;;;3.75;;
23384;SDS011;11865;45.394;10.978;2023-04-10T15:20:11;6.03;;;4.22;;
23384;SDS011;11865;45.394;10.978;2023-04-10T15:22:38;5.10;;;3.72;;
23384;SDS011;11865;45.394;10.978;2023-04-10T15:25:08;4.85;;;3.80;;
23384;SDS011;11865;45.394;10.978;2023-04-10T15:27:37;5.18;;;3.90;;
23384;SDS011;11865;45.394;10.978;2023-04-10T15:30:05;5.70;;;4.07;;
23384;SDS011;11865;45.394;10.978;2023-04-10T15:32:35;5.60;;;3.90;;
23384;SDS011;11865;45.394;10.978;2023-04-10T15:35:03;5.80;;;4.22;;
23384;SDS011;11865;45.394;10.978;2023-04-10T15:37:33;4.85;;;3.90;;
23384;SDS011;11865;45.394;10.978;2023-04-10T15:40:02;5.35;;;4.20;;
23384;SDS011;11865;45.394;10.978;2023-04-10T15:42:32;5.55;;;4.10;;
23384;SDS011;11865;45.394;10.978;2023-04-10T15:45:00;4.78;;;3.90;;
23384;SDS011;11865;45.394;10.978;2023-04-10T15:47:28;4.90;;;3.53;;